Airfield :
LOGIN :

Register | Disclaimer

   EN    FR    IT 

 










Legend :    VFR   Marginal VFR   IFR   Intensive IFR   Very Intensive IFR
Visi :
Ceiling :
>= 8 km
>= 3000ft
5 to 8 km
1000 to 3000 ft
1500m to 5 km
500 to 1000 ft
800 to 1500m
200 to 500 ft
< 800m
< 200 ft
Symbols :   Thunderstorms  Fog  Heavy snow  Heavy precipitations  Wind > 20 kt
SIGMETs :     Misc.  Thunderstorms  Icing  Turbulence  Mountain Waves  Volcanic Ashes







- Airport Elevation : 70 ft
- IATA code : LEI


LEAM - Almeria

CURRENT METAR :
  • 151930Z 16003KT 120V190 CAVOK 25/22 Q1017

EXPIRED METARs :
  • 151900Z VRB02KT 9999 FEW040 25/22 Q1017
  • 151830Z 20003KT 170V240 9999 FEW040 25/22 Q1017
  • 151800Z 21005KT 170V240 9999 SCT040 26/22 Q1017
  • 151730Z 20005KT 170V240 9999 FEW040 26/22 Q1017
  • 151700Z 21007KT 9999 FEW040 26/21 Q1016

TAF TAF LEAM
Valid from the 15 at 15:00 until the 16 at 15:00 UTC


151400Z 1515/1615 22010KT 9999 FEW030 TX29/1515Z TN13/1606Z
BECMG 1519/1521 VRB02KT
BECMG 1602/1604 33010KT
BECMG 1609/1611 19008KT
No reported NOTAMs for that airfield.



MET'MAP, your aeronautical weather chart ! - Copyright ORBIFLY December 2007 - Disclaimer

ORBIFLY MET'MAP TEAM :

Programming & Development : Alexandra Zaïnal
Concept & Development : Baudouin d'Aumeries
Co-Development & Prog : Marc-Olivier Méhu
Technical & hardware support : Manuel Goepfert

Contact : metmap@orbifly.com




SOURCES & CREDITS :

   NOAA